Aérodrome :
LOGIN :

S'inscrire | Disclaimer

   EN    FR    IT 

 










Légende :    VFR   VFR Marginal   IFR   IFR Intensif   IFR Très Intensif
Visi : 
Plafond : 
>= 8 km
>= 3000ft
5 à 8 km
1000 à 3000 ft
1500m à 5 km
500 à 1000 ft
800 à 1500m
200 à 500 ft
< 800m
< 200 ft
Symboles :   Orages  Brouillard  Fortes neiges  Fortes précipitations  Vent > 20 kt
SIGMETs :   Divers  Orages  Givrage  Turbulence  Onde Orograph.  Cendres Volcan.







- Altitude de l'aérodrome : 106 ft
- Code IATA : NRN


EDLV - Weeze

DERNIER METAR :
  • 261720Z 29005KT 240V340 9999 SHRA SCT020CB 07/02 Q1014

METARs EXPIRÉS :
  • 261650Z 25007KT 220V310 9999 VCSH SCT020CB 07/01 Q1013
  • 261620Z 30005KT 250V340 9999 -SHRA SCT020TCU 08/M01 Q1013
  • 261550Z VRB04KT 9999 VCSH SCT047TCU 10/M02 Q1013
  • 261520Z VRB04KT CAVOK 10/M01 Q1013
  • 261450Z 31006KT 250V020 CAVOK 09/00 Q1013

TAF TAF EDLV
Valide du 26 à 18h jusqu'au 27 à 18h UTC


261700Z 2618/2718 32006KT 9999 SCT030
BECMG 2618/2621 VRB01KT
PROB30
TEMPO 2704/2707 2000 BR
BECMG 2707/2710 30005KT
TEMPO 2712/2717 31010KT SHRAGS BKN020CB
Pas de NOTAMs connus pour ce terrain.



MET'MAP, la Météo Aéronautique d'un coup d'oeil ! - Copyright ORBIFLY Décembre 2007 - Disclaimer

ORBIFLY MET'MAP TEAM :

Programmation & Développement : Alexandra Zaïnal
Conception & Développement : Baudouin d'Aumeries
Co-Programmation & Développement : Marc-Olivier Méhu
Soutien technique & logistique : Manuel Goepfert

Contact : metmap@orbifly.com




SOURCES & CREDITS :

   NOAA